Terminal Aerodrome Forecast
Issued by NWS

Home | Current Version | Previous Version | Text Only | Print | Product List | Glossary On
Versions: 1 2 3 4 5 6 7 8 9 10 11 12 13 14 15 16
000
FTUS43 KAPX 302300
TAFMBL
TAF
KMBL 302332Z 3100/3124 VRB03KT P6SM FEW040 SCT070
     FM310200 VRB03KT P6SM VCSH SCT040 BKN060
     FM310400 VRB04KT P6SM SCT100
     FM311200 22011KT P6SM SCT060 BKN150
      AMD LTD TO CLD VIS AND WIND=

USA.gov is the U.S. government's official web portal to all federal, state and local government web resources and services.